Time;durP1;ratioP1;P1;durP2;ratioP2;P2;SDS_P1;SDS_P2;PMS_P1;PMS_P2;Temp;Humidity;BMP_temperature;BMP_pressure;BME280_temperature;BME280_humidity;BME280_pressure;Samples;Min_cycle;Max_cycle;Signal;HPM_P1;HPM_P2
2023/01/10 00:01:55;;;;;;;0.40;0.40;;;;;;;;;;8249804;28;20696;-63
2023/01/10 00:05:55;;;;;;;0.30;0.30;;;;;;;;;;8250427;28;20037;-63
2023/01/10 00:09:55;;;;;;;0.68;0.40;;;;;;;;;;8248070;28;20109;-63
2023/01/10 00:13:56;;;;;;;0.40;0.40;;;;;;;;;;8249038;28;20116;-63
2023/01/10 00:17:56;;;;;;;1.95;0.55;;;;;;;;;;8252847;28;20049;-63
2023/01/10 00:21:57;;;;;;;0.52;0.52;;;;;;;;;;8237378;28;20022;-62
2023/01/10 00:25:57;;;;;;;1.25;0.80;;;;;;;;;;8251955;28;20894;-63
2023/01/10 00:30:00;;;;;;;1.52;0.63;;;;;;;;;;8251272;28;20060;-62
2023/01/10 00:34:00;;;;;;;1.55;0.82;;;;;;;;;;8249705;28;20045;-63
2023/01/10 00:38:04;;;;;;;1.92;0.63;;;;;;;;;;8249793;28;20391;-63
2023/01/10 00:46:24;;;;;;;2.17;0.65;;;;;;;;;;8249126;28;20045;-63
2023/01/10 00:50:24;;;;;;;1.00;0.70;;;;;;;;;;8252278;28;20029;-62
2023/01/10 00:54:24;;;;;;;1.35;0.90;;;;;;;;;;8250290;28;20017;-62
2023/01/10 00:58:24;;;;;;;1.10;0.80;;;;;;;;;;8249322;28;20156;-62
2023/01/10 01:02:25;;;;;;;2.38;0.70;;;;;;;;;;8250995;28;20137;-62
2023/01/10 01:06:25;;;;;;;1.73;0.90;;;;;;;;;;8225585;28;20048;-62
2023/01/10 01:10:26;;;;;;;2.60;0.70;;;;;;;;;;8249501;28;20601;-62
2023/01/10 01:14:26;;;;;;;2.25;0.82;;;;;;;;;;8251509;28;20085;-62
2023/01/10 01:18:26;;;;;;;5.30;0.73;;;;;;;;;;8246720;28;20025;-62
2023/01/10 01:22:27;;;;;;;1.40;0.88;;;;;;;;;;8248103;28;20029;-62
2023/01/10 01:26:27;;;;;;;1.02;0.70;;;;;;;;;;8245927;28;20993;-62
2023/01/10 01:30:27;;;;;;;2.35;1.08;;;;;;;;;;8246085;28;20057;-62
2023/01/10 01:34:27;;;;;;;2.35;1.00;;;;;;;;;;8246706;28;20022;-62
2023/01/10 01:38:27;;;;;;;4.15;1.00;;;;;;;;;;8248732;28;20113;-62
2023/01/10 01:42:32;;;;;;;2.33;1.02;;;;;;;;;;8244705;28;20113;-62
2023/01/10 01:46:36;;;;;;;2.17;1.10;;;;;;;;;;8235963;28;20041;-63
2023/01/10 01:50:36;;;;;;;1.60;0.98;;;;;;;;;;8251469;28;20092;-62
2023/01/10 01:54:36;;;;;;;3.95;1.20;;;;;;;;;;8249506;28;20103;-62
2023/01/10 01:58:40;;;;;;;2.92;1.05;;;;;;;;;;8247700;28;20124;-63
2023/01/10 02:02:45;;;;;;;5.53;1.23;;;;;;;;;;8247870;28;20168;-62
2023/01/10 02:06:46;;;;;;;1.92;1.00;;;;;;;;;;8248822;28;20485;-62
2023/01/10 02:10:47;;;;;;;1.50;1.05;;;;;;;;;;8250347;28;20035;-62
2023/01/10 02:14:49;;;;;;;2.53;1.00;;;;;;;;;;8250462;28;20036;-62
2023/01/10 02:18:49;;;;;;;4.38;1.38;;;;;;;;;;8248567;28;20045;-62
2023/01/10 02:22:49;;;;;;;8.98;1.55;;;;;;;;;;8249143;28;20042;-62
2023/01/10 02:27:08;;;;;;;6.38;1.80;;;;;;;;;;8249397;28;20100;-62
2023/01/10 02:31:17;;;;;;;4.05;1.35;;;;;;;;;;8247923;28;20041;-62
2023/01/10 02:35:18;;;;;;;3.40;1.30;;;;;;;;;;8247035;28;20029;-62
2023/01/10 02:39:38;;;;;;;6.45;1.67;;;;;;;;;;8245190;28;20025;-62
2023/01/10 02:43:40;;;;;;;5.20;1.30;;;;;;;;;;8246425;28;20376;-62
2023/01/10 02:47:40;;;;;;;6.40;1.73;;;;;;;;;;8248085;28;20112;-62
2023/01/10 02:51:40;;;;;;;5.93;1.63;;;;;;;;;;8247206;28;20029;-63
2023/01/10 02:55:59;;;;;;;4.32;1.67;;;;;;;;;;8250007;28;20131;-62
2023/01/10 03:00:06;;;;;;;5.88;1.60;;;;;;;;;;8246931;28;20037;-62
2023/01/10 03:04:19;;;;;;;4.80;1.58;;;;;;;;;;8249454;28;20037;-62
2023/01/10 03:08:25;;;;;;;5.47;1.50;;;;;;;;;;8233989;28;20664;-62
2023/01/10 03:12:39;;;;;;;3.90;1.65;;;;;;;;;;8246459;28;20095;-62
2023/01/10 03:16:41;;;;;;;5.22;1.88;;;;;;;;;;8247404;28;20042;-62
2023/01/10 03:20:42;;;;;;;3.47;1.55;;;;;;;;;;8246467;28;20030;-62
2023/01/10 03:24:46;;;;;;;4.80;1.50;;;;;;;;;;8247755;28;20965;-62
2023/01/10 03:28:49;;;;;;;5.93;1.90;;;;;;;;;;8246828;28;20029;-63
2023/01/10 03:32:50;;;;;;;6.13;1.60;;;;;;;;;;8244104;28;20080;-62
2023/01/10 03:37:02;;;;;;;6.97;1.80;;;;;;;;;;8245838;28;20029;-62
2023/01/10 03:41:14;;;;;;;6.43;1.85;;;;;;;;;;8246620;28;20018;-63
2023/01/10 03:45:15;;;;;;;6.00;1.52;;;;;;;;;;8245223;28;20032;-62
2023/01/10 03:49:16;;;;;;;6.50;1.50;;;;;;;;;;8245812;28;20026;-62
2023/01/10 03:53:16;;;;;;;5.88;1.92;;;;;;;;;;8249223;28;20037;-62
2023/01/10 03:57:17;;;;;;;5.63;1.77;;;;;;;;;;8247562;28;20026;-62
2023/01/10 04:01:17;;;;;;;5.13;1.50;;;;;;;;;;8246182;28;20037;-63
2023/01/10 04:05:18;;;;;;;3.38;1.40;;;;;;;;;;8248125;28;20045;-62
2023/01/10 04:09:18;;;;;;;7.88;2.20;;;;;;;;;;8247471;28;20029;-63
2023/01/10 04:13:18;;;;;;;10.65;1.67;;;;;;;;;;8252826;28;20022;-63
2023/01/10 04:17:18;;;;;;;5.38;1.50;;;;;;;;;;8252574;28;20034;-62
2023/01/10 04:21:18;;;;;;;6.03;1.63;;;;;;;;;;8251160;28;20022;-62
2023/01/10 04:25:19;;;;;;;3.30;1.20;;;;;;;;;;8253003;28;20060;-62
2023/01/10 04:29:19;;;;;;;7.10;1.88;;;;;;;;;;8249122;28;20141;-62
2023/01/10 04:33:19;;;;;;;4.28;1.83;;;;;;;;;;8252219;28;20081;-63
2023/01/10 04:37:19;;;;;;;5.18;1.50;;;;;;;;;;8236493;28;20026;-63
2023/01/10 04:41:20;;;;;;;5.05;1.42;;;;;;;;;;8250426;28;20845;-63
2023/01/10 04:45:20;;;;;;;5.70;1.52;;;;;;;;;;8250443;28;20494;-63
2023/01/10 04:49:21;;;;;;;7.47;1.70;;;;;;;;;;8251057;28;20033;-62
2023/01/10 04:53:21;;;;;;;7.20;1.80;;;;;;;;;;8248816;28;20112;-63
2023/01/10 04:57:21;;;;;;;7.57;1.87;;;;;;;;;;8234070;28;20276;-63
2023/01/10 05:01:22;;;;;;;8.50;1.88;;;;;;;;;;8235794;28;20269;-62
2023/01/10 05:05:22;;;;;;;4.65;1.50;;;;;;;;;;8251285;28;20060;-63
2023/01/10 05:09:22;;;;;;;9.07;1.75;;;;;;;;;;8250260;28;20824;-62
2023/01/10 05:13:24;;;;;;;7.57;1.58;;;;;;;;;;8250717;28;20034;-63
2023/01/10 05:17:24;;;;;;;10.45;2.47;;;;;;;;;;8230562;28;20073;-62
2023/01/10 05:21:24;;;;;;;8.23;2.25;;;;;;;;;;8252291;28;20026;-63
2023/01/10 05:25:24;;;;;;;7.10;1.75;;;;;;;;;;8250943;28;20029;-63
2023/01/10 05:29:24;;;;;;;8.10;1.80;;;;;;;;;;8250674;28;20104;-63
2023/01/10 05:33:25;;;;;;;11.60;2.25;;;;;;;;;;8253971;28;21279;-62
2023/01/10 05:37:25;;;;;;;12.23;2.28;;;;;;;;;;8248798;28;20057;-62
2023/01/10 05:41:25;;;;;;;7.18;1.80;;;;;;;;;;8249263;28;21062;-62
2023/01/10 05:45:25;;;;;;;11.95;2.47;;;;;;;;;;8251456;28;20136;-62
2023/01/10 05:49:25;;;;;;;7.60;1.83;;;;;;;;;;8250659;28;20025;-63
2023/01/10 05:53:25;;;;;;;8.73;1.75;;;;;;;;;;8247046;28;20080;-63
2023/01/10 05:57:26;;;;;;;11.43;2.22;;;;;;;;;;8250070;28;20057;-63
2023/01/10 06:01:26;;;;;;;7.45;1.77;;;;;;;;;;8246201;28;20060;-63
2023/01/10 06:05:26;;;;;;;9.82;1.90;;;;;;;;;;8247481;28;20443;-62
2023/01/10 06:09:26;;;;;;;7.80;1.70;;;;;;;;;;8246891;28;20038;-62
2023/01/10 06:13:26;;;;;;;9.70;2.30;;;;;;;;;;8245908;28;21101;-62
2023/01/10 06:17:28;;;;;;;11.85;2.15;;;;;;;;;;8250087;28;20045;-62
2023/01/10 06:21:28;;;;;;;6.82;2.20;;;;;;;;;;8243654;28;20041;-62
2023/01/10 06:25:28;;;;;;;16.10;2.33;;;;;;;;;;8245830;28;20022;-62
2023/01/10 06:29:28;;;;;;;10.20;2.55;;;;;;;;;;8247941;28;20032;-62
2023/01/10 06:33:28;;;;;;;7.28;2.05;;;;;;;;;;8245667;28;20033;-62
2023/01/10 06:37:29;;;;;;;9.52;2.10;;;;;;;;;;8244696;28;20046;-63
2023/01/10 06:41:29;;;;;;;12.83;2.90;;;;;;;;;;8243655;28;20034;-62
2023/01/10 06:45:29;;;;;;;9.63;2.35;;;;;;;;;;8249233;28;20272;-64
2023/01/10 06:49:29;;;;;;;14.18;2.40;;;;;;;;;;8246360;28;20053;-63
2023/01/10 06:53:29;;;;;;;9.07;2.00;;;;;;;;;;8250258;28;20505;-63
2023/01/10 06:57:32;;;;;;;6.83;1.93;;;;;;;;;;8249464;28;20025;-62
2023/01/10 07:01:33;;;;;;;11.45;2.92;;;;;;;;;;8246907;28;20288;-62
2023/01/10 07:05:33;;;;;;;13.90;3.03;;;;;;;;;;8250799;28;20196;-62
2023/01/10 07:09:33;;;;;;;13.27;2.10;;;;;;;;;;8248037;28;20025;-63
2023/01/10 07:13:33;;;;;;;9.10;2.30;;;;;;;;;;8249430;28;20659;-63
2023/01/10 07:17:33;;;;;;;8.30;2.40;;;;;;;;;;8248353;28;20042;-63
2023/01/10 07:21:34;;;;;;;12.52;2.05;;;;;;;;;;8248254;28;20025;-62
2023/01/10 07:25:34;;;;;;;12.52;2.45;;;;;;;;;;8249622;28;20796;-63
2023/01/10 07:29:34;;;;;;;14.25;2.60;;;;;;;;;;8247504;28;20026;-62
2023/01/10 07:33:34;;;;;;;11.82;2.40;;;;;;;;;;8247618;28;20034;-63
2023/01/10 07:37:34;;;;;;;11.38;2.40;;;;;;;;;;8249270;28;20084;-63
2023/01/10 07:41:35;;;;;;;11.85;2.47;;;;;;;;;;8244456;28;20144;-63
2023/01/10 07:45:35;;;;;;;14.23;2.63;;;;;;;;;;8254289;28;20041;-63
2023/01/10 07:49:35;;;;;;;11.18;2.72;;;;;;;;;;8255038;28;20030;-63
2023/01/10 07:53:35;;;;;;;12.57;2.20;;;;;;;;;;8256141;28;20037;-63
2023/01/10 07:57:35;;;;;;;6.65;2.03;;;;;;;;;;8256311;28;20953;-62
2023/01/10 08:01:36;;;;;;;10.68;2.50;;;;;;;;;;8254512;28;20077;-63
2023/01/10 08:05:36;;;;;;;8.88;1.85;;;;;;;;;;8237193;28;20026;-63
2023/01/10 08:09:36;;;;;;;9.07;2.80;;;;;;;;;;8255670;28;20116;-63
2023/01/10 08:13:36;;;;;;;11.02;2.28;;;;;;;;;;8255606;28;20285;-63
2023/01/10 08:17:36;;;;;;;7.78;2.05;;;;;;;;;;8253583;28;20954;-63
2023/01/10 08:21:36;;;;;;;10.55;2.17;;;;;;;;;;8253883;28;20036;-63
2023/01/10 08:25:37;;;;;;;7.63;2.00;;;;;;;;;;8254375;28;20033;-63
2023/01/10 08:29:37;;;;;;;6.68;1.70;;;;;;;;;;8253023;28;20053;-63
2023/01/10 08:33:38;;;;;;;11.13;1.70;;;;;;;;;;8253377;28;20132;-63
2023/01/10 08:37:38;;;;;;;8.88;2.05;;;;;;;;;;8255075;28;20029;-63
2023/01/10 08:41:40;;;;;;;8.90;2.17;;;;;;;;;;8253767;28;20192;-63
2023/01/10 08:45:40;;;;;;;8.52;2.03;;;;;;;;;;8254405;28;20281;-63
2023/01/10 08:49:40;;;;;;;7.53;2.00;;;;;;;;;;8253945;28;20682;-63
2023/01/10 08:53:40;;;;;;;6.80;2.05;;;;;;;;;;8250833;28;20292;-63
2023/01/10 08:57:40;;;;;;;6.95;1.73;;;;;;;;;;8253753;28;20038;-62
2023/01/10 09:01:41;;;;;;;9.25;2.42;;;;;;;;;;8252988;28;20706;-63
2023/01/10 09:05:41;;;;;;;8.40;1.73;;;;;;;;;;8252193;28;20038;-63
2023/01/10 09:09:41;;;;;;;12.98;2.22;;;;;;;;;;8254283;28;20057;-64
2023/01/10 09:13:41;;;;;;;6.28;1.75;;;;;;;;;;8255124;28;20574;-63
2023/01/10 09:17:42;;;;;;;17.60;2.60;;;;;;;;;;8252777;28;20042;-63
2023/01/10 09:21:42;;;;;;;13.30;2.33;;;;;;;;;;8251001;28;20084;-63
2023/01/10 09:25:42;;;;;;;8.02;2.05;;;;;;;;;;8253417;28;20025;-63
2023/01/10 09:29:43;;;;;;;11.57;2.03;;;;;;;;;;8250889;28;20030;-63
2023/01/10 09:33:43;;;;;;;14.25;2.90;;;;;;;;;;8252769;28;20516;-62
2023/01/10 09:37:43;;;;;;;11.07;2.88;;;;;;;;;;8249444;28;21174;-63
2023/01/10 09:42:02;;;;;;;11.55;2.88;;;;;;;;;;8249660;28;20030;-62
2023/01/10 09:46:21;;;;;;;11.55;2.42;;;;;;;;;;8251147;28;20861;-63
2023/01/10 09:50:26;;;;;;;12.93;2.40;;;;;;;;;;8251226;28;20030;-62
2023/01/10 09:54:31;;;;;;;9.88;2.35;;;;;;;;;;8252410;28;20021;-62
2023/01/10 09:58:33;;;;;;;18.35;3.10;;;;;;;;;;8249750;28;20041;-62
2023/01/10 10:02:35;;;;;;;9.73;2.28;;;;;;;;;;8249763;28;20588;-63
2023/01/10 10:06:35;;;;;;;11.38;3.20;;;;;;;;;;8251778;28;20026;-63
2023/01/10 10:10:40;;;;;;;12.00;2.75;;;;;;;;;;8251565;28;22099;-63
2023/01/10 10:14:41;;;;;;;;;;;;;;;;;;8240447;28;20048;-63
2023/01/10 10:18:51;;;;;;;20.85;3.22;;;;;;;;;;8247826;28;19924;-63
2023/01/10 10:22:51;;;;;;;12.63;2.95;;;;;;;;;;8249635;28;20380;-62
2023/01/10 10:27:15;;;;;;;16.98;3.00;;;;;;;;;;8252199;28;20129;-63
2023/01/10 10:31:38;;;;;;;14.82;3.63;;;;;;;;;;8239534;28;20077;-63
2023/01/10 10:35:40;;;;;;;15.38;5.28;;;;;;;;;;8211691;28;20808;-63
2023/01/10 10:39:46;;;;;;;12.02;3.28;;;;;;;;;;8249444;28;20061;-63
2023/01/10 10:43:46;;;;;;;11.88;3.30;;;;;;;;;;8248719;28;20022;-63
2023/01/10 10:47:53;;;;;;;14.32;4.15;;;;;;;;;;8249331;28;20041;-63
2023/01/10 10:51:53;;;;;;;12.70;3.30;;;;;;;;;;8251547;28;20053;-63
2023/01/10 10:55:54;;;;;;;11.27;3.50;;;;;;;;;;8248482;28;20022;-63
2023/01/10 10:59:55;;;;;;;15.25;3.10;;;;;;;;;;8251300;28;20021;-63
2023/01/10 11:04:00;;;;;;;14.55;2.85;;;;;;;;;;8249844;28;20042;-63
2023/01/10 11:08:06;;;;;;;13.10;2.80;;;;;;;;;;8246864;28;20177;-63
2023/01/10 11:12:15;;;;;;;13.38;2.63;;;;;;;;;;8242026;28;20161;-62
2023/01/10 11:16:35;;;;;;;10.75;2.30;;;;;;;;;;8245918;28;20033;-63
2023/01/10 11:20:35;;;;;;;9.52;2.83;;;;;;;;;;8250658;28;20036;-63
2023/01/10 11:24:43;;;;;;;14.75;2.38;;;;;;;;;;8254072;28;20140;-63
2023/01/10 11:28:44;;;;;;;11.88;2.20;;;;;;;;;;8251214;28;20077;-63
2023/01/10 11:32:52;;;;;;;8.38;2.60;;;;;;;;;;8250850;28;20755;-63
2023/01/10 11:36:53;;;;;;;7.75;2.42;;;;;;;;;;8253493;28;20026;-63
2023/01/10 11:40:55;;;;;;;12.10;2.75;;;;;;;;;;8250865;28;20028;-63
2023/01/10 11:45:13;;;;;;;12.15;2.28;;;;;;;;;;8252672;28;20033;-63
2023/01/10 11:49:18;;;;;;;11.13;2.53;;;;;;;;;;8253006;28;20085;-63
2023/01/10 11:53:27;;;;;;;9.00;2.63;;;;;;;;;;8254018;28;20982;-63
2023/01/10 11:57:30;;;;;;;13.18;2.58;;;;;;;;;;8253035;28;20779;-63
2023/01/10 12:01:45;;;;;;;13.85;2.55;;;;;;;;;;8251184;28;20030;-63
2023/01/10 12:05:53;;;;;;;12.63;2.42;;;;;;;;;;8251404;28;20018;-63
2023/01/10 12:10:00;;;;;;;14.95;2.33;;;;;;;;;;8251687;28;20037;-63
2023/01/10 12:14:01;;;;;;;9.68;2.20;;;;;;;;;;8251264;28;20994;-63
2023/01/10 12:18:03;;;;;;;12.05;2.47;;;;;;;;;;8233307;28;20693;-63
2023/01/10 12:22:06;;;;;;;14.52;3.10;;;;;;;;;;8251307;28;20030;-62
2023/01/10 12:26:07;;;;;;;11.77;2.25;;;;;;;;;;8249211;28;20317;-63
2023/01/10 12:30:13;;;;;;;15.07;2.65;;;;;;;;;;8250609;28;20034;-63
2023/01/10 12:34:19;;;;;;;11.13;2.22;;;;;;;;;;8249387;28;20025;-63
2023/01/10 12:47:20;;;;;;;12.75;2.15;;;;;;;;;;8250483;28;20045;-63
2023/01/10 12:51:22;;;;;;;8.77;2.05;;;;;;;;;;8247784;28;20356;-63
2023/01/10 12:55:24;;;;;;;12.45;2.30;;;;;;;;;;8249913;28;20018;-63
2023/01/10 12:59:27;;;;;;;16.13;2.05;;;;;;;;;;8248904;28;20621;-63
2023/01/10 13:03:28;;;;;;;18.00;3.10;;;;;;;;;;8252877;28;20133;-63
2023/01/10 13:07:31;;;;;;;14.45;2.88;;;;;;;;;;8250460;28;20112;-63
2023/01/10 13:11:35;;;;;;;21.27;9.15;;;;;;;;;;8247304;28;20049;-63
2023/01/10 13:15:37;;;;;;;11.57;2.15;;;;;;;;;;8250160;28;20651;-63
2023/01/10 13:19:37;;;;;;;13.80;2.70;;;;;;;;;;8244291;28;20542;-63
2023/01/10 13:23:48;;;;;;;11.90;2.83;;;;;;;;;;8249611;28;20084;-62
2023/01/10 13:28:11;;;;;;;14.48;2.65;;;;;;;;;;8249251;28;20814;-63
2023/01/10 13:32:20;;;;;;;9.18;2.13;;;;;;;;;;8236415;28;20112;-63
2023/01/10 13:36:23;;;;;;;11.52;2.10;;;;;;;;;;8248566;28;20053;-62
2023/01/10 13:40:26;;;;;;;16.67;2.70;;;;;;;;;;8247128;28;20061;-63
2023/01/10 13:44:27;;;;;;;14.15;3.30;;;;;;;;;;8249240;28;20022;-63
2023/01/10 13:48:27;;;;;;;21.00;3.58;;;;;;;;;;8248406;28;20449;-63
2023/01/10 13:52:31;;;;;;;10.05;2.47;;;;;;;;;;8248849;28;20022;-63
2023/01/10 13:56:33;;;;;;;18.38;3.17;;;;;;;;;;8248613;28;20748;-63
2023/01/10 14:04:54;;;;;;;17.30;4.03;;;;;;;;;;8248396;28;20036;-63
2023/01/10 14:08:56;;;;;;;17.67;2.60;;;;;;;;;;8245787;28;20026;-63
2023/01/10 14:13:07;;;;;;;8.60;2.50;;;;;;;;;;8247639;28;20121;-63
2023/01/10 14:17:13;;;;;;;12.20;2.20;;;;;;;;;;8249418;28;20037;-63
2023/01/10 14:21:20;;;;;;;12.52;3.08;;;;;;;;;;8245927;28;20028;-63
2023/01/10 14:25:20;;;;;;;9.25;2.35;;;;;;;;;;8223684;28;20109;-63
2023/01/10 14:29:21;;;;;;;13.25;2.40;;;;;;;;;;8248188;28;20072;-63
2023/01/10 14:33:22;;;;;;;9.15;1.73;;;;;;;;;;8247185;28;20584;-63
2023/01/10 14:37:26;;;;;;;11.95;2.20;;;;;;;;;;8248521;28;20018;-62
2023/01/10 14:41:37;;;;;;;11.00;2.58;;;;;;;;;;8244656;28;21078;-63
2023/01/10 14:45:42;;;;;;;11.60;2.08;;;;;;;;;;8246465;28;20073;-63
2023/01/10 14:49:50;;;;;;;8.35;2.10;;;;;;;;;;8248242;28;20030;-63
2023/01/10 14:54:00;;;;;;;8.32;2.00;;;;;;;;;;8246155;28;20889;-63
2023/01/10 14:58:01;;;;;;;10.05;2.13;;;;;;;;;;8246077;28;20096;-62
2023/01/10 15:02:09;;;;;;;9.73;2.10;;;;;;;;;;8247175;28;20037;-63
2023/01/10 15:06:09;;;;;;;12.00;2.30;;;;;;;;;;8246928;28;20503;-63
2023/01/10 15:10:18;;;;;;;15.70;2.00;;;;;;;;;;8244415;28;20026;-63
2023/01/10 15:14:20;;;;;;;13.40;2.25;;;;;;;;;;8248001;28;20022;-62
2023/01/10 15:18:50;;;;;;;10.23;2.22;;;;;;;;;;8244362;28;20053;-62
2023/01/10 15:22:54;;;;;;;10.48;1.75;;;;;;;;;;8234914;28;20050;-63
2023/01/10 15:26:57;;;;;;;12.20;2.33;;;;;;;;;;8244933;28;20129;-63
2023/01/10 15:30:58;;;;;;;7.22;1.83;;;;;;;;;;8245607;28;20144;-63
2023/01/10 15:34:59;;;;;;;6.80;1.75;;;;;;;;;;8247545;28;20040;-63
2023/01/10 15:38:59;;;;;;;10.50;2.38;;;;;;;;;;8246473;28;20149;-63
2023/01/10 15:43:29;;;;;;;11.80;2.42;;;;;;;;;;8245890;28;20061;-63
2023/01/10 15:47:32;;;;;;;15.43;2.58;;;;;;;;;;8236679;28;20034;-62
2023/01/10 15:51:38;;;;;;;11.05;1.77;;;;;;;;;;8244782;28;20036;-62
2023/01/10 15:55:40;;;;;;;11.82;2.28;;;;;;;;;;8246536;28;20026;-63
2023/01/10 15:59:45;;;;;;;6.72;1.88;;;;;;;;;;8244929;28;20041;-63
2023/01/10 16:03:47;;;;;;;8.65;1.95;;;;;;;;;;8246354;28;20220;-63
2023/01/10 16:07:48;;;;;;;12.13;2.28;;;;;;;;;;8252626;28;20775;-63
2023/01/10 16:16:14;;;;;;;16.30;2.35;;;;;;;;;;8250224;28;20041;-63
2023/01/10 16:20:15;;;;;;;8.68;1.58;;;;;;;;;;8251431;28;20714;-63
2023/01/10 16:24:19;;;;;;;16.52;2.95;;;;;;;;;;8248390;28;20034;-62
2023/01/10 16:28:21;;;;;;;10.57;2.22;;;;;;;;;;8249846;28;20049;-63
2023/01/10 16:32:21;;;;;;;12.55;2.40;;;;;;;;;;8250760;28;20076;-63
2023/01/10 16:36:21;;;;;;;9.10;2.20;;;;;;;;;;8246085;28;20121;-62
2023/01/10 16:40:26;;;;;;;9.95;2.38;;;;;;;;;;8251284;28;20026;-63
2023/01/10 16:44:26;;;;;;;11.88;2.38;;;;;;;;;;8252631;28;20021;-63
2023/01/10 16:48:27;;;;;;;11.90;1.92;;;;;;;;;;8248627;28;20049;-62
2023/01/10 16:52:28;;;;;;;6.97;1.70;;;;;;;;;;8251950;28;21062;-62
2023/01/10 16:56:28;;;;;;;8.85;2.00;;;;;;;;;;8249908;28;20104;-62
2023/01/10 17:00:28;;;;;;;12.57;2.83;;;;;;;;;;8248765;28;20578;-62
2023/01/10 17:04:31;;;;;;;8.27;2.42;;;;;;;;;;8251147;28;20026;-63
2023/01/10 17:08:31;;;;;;;11.98;2.30;;;;;;;;;;8247745;28;20034;-62
2023/01/10 17:12:33;;;;;;;10.20;2.30;;;;;;;;;;8250589;28;20024;-63
2023/01/10 17:16:33;;;;;;;11.48;2.47;;;;;;;;;;8250135;28;20412;-62
2023/01/10 17:20:34;;;;;;;8.35;2.30;;;;;;;;;;8246792;28;20796;-62
2023/01/10 17:24:34;;;;;;;10.43;2.55;;;;;;;;;;8251574;28;20149;-63
2023/01/10 17:28:34;;;;;;;10.82;2.08;;;;;;;;;;8249631;28;20022;-63
2023/01/10 17:32:34;;;;;;;13.30;2.40;;;;;;;;;;8247792;28;20073;-62
2023/01/10 17:36:37;;;;;;;10.70;2.43;;;;;;;;;;8249458;28;20026;-62
2023/01/10 17:40:38;;;;;;;11.25;2.35;;;;;;;;;;8248501;28;20280;-62
2023/01/10 17:44:38;;;;;;;14.00;3.47;;;;;;;;;;8248654;28;20033;-62
2023/01/10 17:48:39;;;;;;;17.73;3.17;;;;;;;;;;8248245;28;20439;-63
2023/01/10 17:52:39;;;;;;;20.10;5.80;;;;;;;;;;8248391;28;20630;-63
2023/01/10 17:56:39;;;;;;;14.73;3.30;;;;;;;;;;8250587;28;20658;-63
2023/01/10 18:00:40;;;;;;;10.55;2.72;;;;;;;;;;8250148;28;20042;-63
2023/01/10 18:04:40;;;;;;;10.68;2.63;;;;;;;;;;8251170;28;20060;-63
2023/01/10 18:08:40;;;;;;;19.13;8.15;;;;;;;;;;8250903;28;20487;-63
2023/01/10 18:12:40;;;;;;;12.45;3.20;;;;;;;;;;8251688;28;20037;-63
2023/01/10 18:16:40;;;;;;;22.13;9.68;;;;;;;;;;8244492;28;20736;-62
2023/01/10 18:20:42;;;;;;;8.70;2.85;;;;;;;;;;8250320;28;20030;-62
2023/01/10 18:24:44;;;;;;;23.17;8.57;;;;;;;;;;8240627;28;20127;-62
2023/01/10 18:28:44;;;;;;;11.70;2.88;;;;;;;;;;8244049;28;20517;-62
2023/01/10 18:32:44;;;;;;;13.13;3.30;;;;;;;;;;8245419;28;20144;-62
2023/01/10 18:36:44;;;;;;;11.32;2.72;;;;;;;;;;8245475;28;20030;-62
2023/01/10 18:40:46;;;;;;;9.00;2.45;;;;;;;;;;8245043;28;20017;-62
2023/01/10 18:44:46;;;;;;;10.95;2.20;;;;;;;;;;8245825;28;20088;-62
2023/01/10 18:48:48;;;;;;;11.30;2.23;;;;;;;;;;8244281;28;20551;-62
2023/01/10 18:52:49;;;;;;;6.88;1.73;;;;;;;;;;8245782;28;20330;-62
2023/01/10 18:56:49;;;;;;;11.05;2.22;;;;;;;;;;8243048;28;20028;-62
2023/01/10 19:00:50;;;;;;;11.75;2.60;;;;;;;;;;8244090;28;20619;-62
2023/01/10 19:04:50;;;;;;;12.52;2.33;;;;;;;;;;8244871;28;20033;-62
2023/01/10 19:08:50;;;;;;;9.65;2.20;;;;;;;;;;8244670;28;20029;-62
2023/01/10 19:12:50;;;;;;;16.07;2.70;;;;;;;;;;8245235;28;20029;-62
2023/01/10 19:16:51;;;;;;;7.55;2.38;;;;;;;;;;8246327;28;20265;-62
2023/01/10 19:20:51;;;;;;;17.67;2.60;;;;;;;;;;8243853;28;20028;-62
2023/01/10 19:24:51;;;;;;;9.57;2.58;;;;;;;;;;8242823;28;20034;-62
2023/01/10 19:28:52;;;;;;;10.43;2.15;;;;;;;;;;8243275;28;20160;-62
2023/01/10 19:32:52;;;;;;;10.35;1.75;;;;;;;;;;8244223;28;20034;-62
2023/01/10 19:36:52;;;;;;;12.48;2.25;;;;;;;;;;8247138;28;20141;-62
2023/01/10 19:40:55;;;;;;;13.18;2.63;;;;;;;;;;8249325;28;20625;-62
2023/01/10 19:44:55;;;;;;;11.07;2.42;;;;;;;;;;8251925;28;20036;-62
2023/01/10 19:48:56;;;;;;;8.30;2.53;;;;;;;;;;8249130;28;20042;-62
2023/01/10 19:52:56;;;;;;;9.93;3.60;;;;;;;;;;8251914;28;20410;-62
2023/01/10 19:56:56;;;;;;;8.98;1.80;;;;;;;;;;8251141;28;20022;-62
2023/01/10 20:00:56;;;;;;;8.13;2.22;;;;;;;;;;8249345;28;20037;-62
2023/01/10 20:04:57;;;;;;;6.78;1.70;;;;;;;;;;8249766;28;20059;-62
2023/01/10 20:08:57;;;;;;;6.07;2.03;;;;;;;;;;8249224;28;20032;-62
2023/01/10 20:12:57;;;;;;;18.42;8.80;;;;;;;;;;8249977;28;20457;-62
2023/01/10 20:16:57;;;;;;;8.02;3.70;;;;;;;;;;8248812;28;20137;-62
2023/01/10 20:20:58;;;;;;;4.72;1.95;;;;;;;;;;8247777;28;20657;-62
2023/01/10 20:24:59;;;;;;;9.55;2.92;;;;;;;;;;8236670;28;20176;-62
2023/01/10 20:29:00;;;;;;;12.95;3.53;;;;;;;;;;8248663;28;20112;-62
2023/01/10 20:33:00;;;;;;;7.45;3.10;;;;;;;;;;8249813;28;20038;-62
2023/01/10 20:37:01;;;;;;;8.35;3.38;;;;;;;;;;8250542;28;20040;-62
2023/01/10 20:41:10;;;;;;;8.60;3.28;;;;;;;;;;8250825;28;20144;-62
2023/01/10 20:45:10;;;;;;;5.93;2.40;;;;;;;;;;8249717;28;20095;-62
2023/01/10 20:49:10;;;;;;;11.43;4.60;;;;;;;;;;8249647;28;20030;-62
2023/01/10 20:53:11;;;;;;;14.32;5.55;;;;;;;;;;8229971;28;20050;-62
2023/01/10 20:57:11;;;;;;;9.38;3.45;;;;;;;;;;8250284;28;20026;-62
2023/01/10 21:01:13;;;;;;;7.53;3.78;;;;;;;;;;8251050;28;20056;-62
2023/01/10 21:05:13;;;;;;;6.30;2.92;;;;;;;;;;8249593;28;20036;-63
2023/01/10 21:09:15;;;;;;;4.97;2.45;;;;;;;;;;8248327;28;20034;-62
2023/01/10 21:13:16;;;;;;;6.53;3.00;;;;;;;;;;8250002;28;20148;-62
2023/01/10 21:17:16;;;;;;;9.27;4.45;;;;;;;;;;8248658;28;20065;-62
2023/01/10 21:21:17;;;;;;;11.85;6.28;;;;;;;;;;8243164;28;20117;-62
2023/01/10 21:25:18;;;;;;;10.32;3.90;;;;;;;;;;8250555;28;20053;-62
2023/01/10 21:29:18;;;;;;;10.88;3.88;;;;;;;;;;8247327;28;20018;-62
2023/01/10 21:33:18;;;;;;;9.18;4.72;;;;;;;;;;8247353;28;20034;-62
2023/01/10 21:37:18;;;;;;;6.18;2.60;;;;;;;;;;8249091;28;20112;-62
2023/01/10 21:42:33;;;;;;;5.70;2.25;;;;;;;;;;8242086;28;20028;-62
2023/01/10 21:45:39;;;;;;;5.30;2.00;;;;;;;;;;8245017;28;20072;-62
2023/01/10 21:49:39;;;;;;;3.95;1.77;;;;;;;;;;8249177;28;20744;-67
2023/01/10 21:53:41;;;;;;;2.53;1.37;;;;;;;;;;8246945;28;20029;-62
2023/01/10 21:57:42;;;;;;;3.58;1.90;;;;;;;;;;8247603;28;20276;-62
2023/01/10 22:01:42;;;;;;;3.72;1.50;;;;;;;;;;8246138;28;20399;-62
2023/01/10 22:05:42;;;;;;;2.78;1.40;;;;;;;;;;8246989;28;20028;-62
2023/01/10 22:09:42;;;;;;;3.13;1.48;;;;;;;;;;8244564;28;20030;-62
2023/01/10 22:13:43;;;;;;;2.47;1.23;;;;;;;;;;8244587;28;20065;-62
2023/01/10 22:17:43;;;;;;;2.05;1.10;;;;;;;;;;8245086;28;20045;-62
2023/01/10 22:21:43;;;;;;;3.67;1.27;;;;;;;;;;8246434;28;20033;-62
2023/01/10 22:25:43;;;;;;;3.40;1.35;;;;;;;;;;8245786;28;20025;-62
2023/01/10 22:29:44;;;;;;;1.38;1.10;;;;;;;;;;8247981;28;20041;-62
2023/01/10 22:33:44;;;;;;;1.30;0.90;;;;;;;;;;8247304;28;20038;-62
2023/01/10 22:37:44;;;;;;;2.45;1.10;;;;;;;;;;8241083;28;20057;-62
2023/01/10 22:41:44;;;;;;;2.28;1.00;;;;;;;;;;8228703;28;20676;-62
2023/01/10 22:45:45;;;;;;;2.15;1.30;;;;;;;;;;8246134;28;20038;-62
2023/01/10 22:49:45;;;;;;;1.63;0.88;;;;;;;;;;8244714;28;20842;-62
2023/01/10 22:53:49;;;;;;;1.60;1.13;;;;;;;;;;8246950;28;20085;-62
2023/01/10 22:57:49;;;;;;;0.88;0.88;;;;;;;;;;8244348;28;20281;-62
2023/01/10 23:01:49;;;;;;;1.73;0.90;;;;;;;;;;8245416;28;20084;-62
2023/01/10 23:05:56;;;;;;;1.80;1.25;;;;;;;;;;8244370;28;20297;-62
2023/01/10 23:09:56;;;;;;;1.95;0.95;;;;;;;;;;8242183;28;20121;-62
2023/01/10 23:13:57;;;;;;;1.65;1.02;;;;;;;;;;8244933;28;20056;-62
2023/01/10 23:17:57;;;;;;;3.10;1.85;;;;;;;;;;8245260;28;20030;-62
2023/01/10 23:21:57;;;;;;;2.05;1.05;;;;;;;;;;8242466;28;20025;-63
2023/01/10 23:26:01;;;;;;;7.30;1.88;;;;;;;;;;8245333;28;20029;-62
2023/01/10 23:30:02;;;;;;;3.30;1.50;;;;;;;;;;8246018;28;20120;-62
2023/01/10 23:34:02;;;;;;;2.88;1.33;;;;;;;;;;8242971;28;20049;-62
2023/01/10 23:38:02;;;;;;;2.45;1.40;;;;;;;;;;8244381;28;20486;-62
2023/01/10 23:42:02;;;;;;;3.80;1.90;;;;;;;;;;8243164;28;20025;-62
2023/01/10 23:46:04;;;;;;;2.30;1.50;;;;;;;;;;8243292;28;20269;-62
2023/01/10 23:50:05;;;;;;;3.20;1.35;;;;;;;;;;8245838;28;20034;-62
2023/01/10 23:54:05;;;;;;;2.78;1.60;;;;;;;;;;8245943;28;21054;-62
2023/01/10 23:58:05;;;;;;;1.80;1.52;;;;;;;;;;8242700;28;20029;-62
